Geraldton, Australia
Current Conditions -  °F | °C
As of 4:30 AM on Friday 19 Dec 2014 (Local Time) from YGEL Reporting Station
Scattered Clouds Scattered Clouds  
Wind Chill: 59°   Ceiling: Unl
Heat Index: 59°   Visibility: 6mi
Dew Point: 54°   Wind: 3mph
Humidity: 82%   Direction: 130°SE
Pressure: 29.77"   Gusts: NA
Location:  28.77°S, 114.61°E
Report Text: YGEL 182030Z AUTO 13003KT 9999 // SCT112 15/12 Q1008
Loading
Personal Weather Stations






























Interactive Weather Map New forecast layout! Learn more

10-Day Weather Forecast

Advertisements
Track Severe Weather on mobile